sensor_id;sensor_type;location;lat;lon;timestamp;P1;durP1;ratioP1;P2;durP2;ratioP2
13032;SDS011;6583;42.632;23.298;2022-09-02T00:00:40;18.23;;;16.33;;
13032;SDS011;6583;42.632;23.298;2022-09-02T00:03:07;18.40;;;16.15;;
13032;SDS011;6583;42.632;23.298;2022-09-02T00:05:34;19.25;;;17.13;;
13032;SDS011;6583;42.632;23.298;2022-09-02T00:08:01;20.40;;;18.40;;
13032;SDS011;6583;42.632;23.298;2022-09-02T00:10:30;21.00;;;18.98;;
13032;SDS011;6583;42.632;23.298;2022-09-02T00:12:57;20.10;;;18.20;;
13032;SDS011;6583;42.632;23.298;2022-09-02T00:15:23;19.73;;;17.77;;
13032;SDS011;6583;42.632;23.298;2022-09-02T00:17:51;18.58;;;16.98;;
13032;SDS011;6583;42.632;23.298;2022-09-02T00:20:18;19.15;;;17.35;;
13032;SDS011;6583;42.632;23.298;2022-09-02T00:22:45;19.35;;;17.52;;
13032;SDS011;6583;42.632;23.298;2022-09-02T00:25:12;18.92;;;16.95;;
13032;SDS011;6583;42.632;23.298;2022-09-02T00:27:40;17.98;;;16.20;;
13032;SDS011;6583;42.632;23.298;2022-09-02T00:30:07;17.73;;;15.88;;
13032;SDS011;6583;42.632;23.298;2022-09-02T00:32:34;19.05;;;17.05;;
13032;SDS011;6583;42.632;23.298;2022-09-02T00:35:01;19.10;;;17.38;;
13032;SDS011;6583;42.632;23.298;2022-09-02T00:37:27;17.83;;;16.02;;
13032;SDS011;6583;42.632;23.298;2022-09-02T00:39:54;18.20;;;16.58;;
13032;SDS011;6583;42.632;23.298;2022-09-02T00:42:22;18.30;;;16.60;;
13032;SDS011;6583;42.632;23.298;2022-09-02T00:44:52;18.40;;;16.60;;
13032;SDS011;6583;42.632;23.298;2022-09-02T00:47:19;19.70;;;17.80;;
13032;SDS011;6583;42.632;23.298;2022-09-02T00:49:47;17.88;;;16.08;;
13032;SDS011;6583;42.632;23.298;2022-09-02T00:52:18;17.77;;;16.17;;
13032;SDS011;6583;42.632;23.298;2022-09-02T00:54:48;19.00;;;17.10;;
13032;SDS011;6583;42.632;23.298;2022-09-02T00:57:18;19.08;;;17.23;;
13032;SDS011;6583;42.632;23.298;2022-09-02T00:59:49;19.98;;;16.40;;
13032;SDS011;6583;42.632;23.298;2022-09-02T01:02:21;19.08;;;16.38;;
13032;SDS011;6583;42.632;23.298;2022-09-02T01:04:49;20.30;;;18.13;;
13032;SDS011;6583;42.632;23.298;2022-09-02T01:07:17;20.20;;;17.65;;
13032;SDS011;6583;42.632;23.298;2022-09-02T01:09:43;16.92;;;15.25;;
13032;SDS011;6583;42.632;23.298;2022-09-02T01:12:10;19.30;;;15.90;;
13032;SDS011;6583;42.632;23.298;2022-09-02T01:14:40;17.10;;;15.40;;
13032;SDS011;6583;42.632;23.298;2022-09-02T01:17:06;18.75;;;16.10;;
13032;SDS011;6583;42.632;23.298;2022-09-02T01:19:36;19.80;;;17.80;;
13032;SDS011;6583;42.632;23.298;2022-09-02T01:22:14;20.77;;;18.73;;
13032;SDS011;6583;42.632;23.298;2022-09-02T01:24:43;20.88;;;18.73;;
13032;SDS011;6583;42.632;23.298;2022-09-02T01:27:12;21.00;;;18.90;;
13032;SDS011;6583;42.632;23.298;2022-09-02T01:29:40;20.55;;;18.50;;
13032;SDS011;6583;42.632;23.298;2022-09-02T01:32:06;20.73;;;18.70;;
13032;SDS011;6583;42.632;23.298;2022-09-02T01:34:33;21.20;;;19.20;;
13032;SDS011;6583;42.632;23.298;2022-09-02T01:37:00;19.58;;;17.67;;
13032;SDS011;6583;42.632;23.298;2022-09-02T01:39:28;21.42;;;19.17;;
13032;SDS011;6583;42.632;23.298;2022-09-02T01:41:55;19.73;;;17.70;;
13032;SDS011;6583;42.632;23.298;2022-09-02T01:44:21;19.52;;;17.60;;
13032;SDS011;6583;42.632;23.298;2022-09-02T01:46:51;20.73;;;18.52;;
13032;SDS011;6583;42.632;23.298;2022-09-02T01:49:17;21.25;;;19.05;;
13032;SDS011;6583;42.632;23.298;2022-09-02T01:51:44;20.73;;;18.60;;
13032;SDS011;6583;42.632;23.298;2022-09-02T01:54:11;21.35;;;19.35;;
13032;SDS011;6583;42.632;23.298;2022-09-02T01:56:39;22.25;;;19.98;;
13032;SDS011;6583;42.632;23.298;2022-09-02T01:59:06;23.05;;;20.65;;
13032;SDS011;6583;42.632;23.298;2022-09-02T02:01:35;22.02;;;19.75;;
13032;SDS011;6583;42.632;23.298;2022-09-02T02:04:03;21.35;;;19.13;;
13032;SDS011;6583;42.632;23.298;2022-09-02T02:06:30;22.83;;;20.52;;
13032;SDS011;6583;42.632;23.298;2022-09-02T02:08:56;23.52;;;21.08;;
13032;SDS011;6583;42.632;23.298;2022-09-02T02:11:23;21.90;;;19.65;;
13032;SDS011;6583;42.632;23.298;2022-09-02T02:13:52;24.73;;;22.15;;
13032;SDS011;6583;42.632;23.298;2022-09-02T02:16:18;22.02;;;19.95;;
13032;SDS011;6583;42.632;23.298;2022-09-02T02:18:45;22.83;;;20.63;;
13032;SDS011;6583;42.632;23.298;2022-09-02T02:21:12;22.38;;;20.02;;
13032;SDS011;6583;42.632;23.298;2022-09-02T02:23:38;21.88;;;19.67;;
13032;SDS011;6583;42.632;23.298;2022-09-02T02:26:05;22.67;;;20.30;;
13032;SDS011;6583;42.632;23.298;2022-09-02T02:28:32;21.88;;;19.67;;
13032;SDS011;6583;42.632;23.298;2022-09-02T02:31:00;20.70;;;18.60;;
13032;SDS011;6583;42.632;23.298;2022-09-02T02:33:27;19.55;;;17.50;;
13032;SDS011;6583;42.632;23.298;2022-09-02T02:35:54;19.35;;;17.27;;
13032;SDS011;6583;42.632;23.298;2022-09-02T02:38:21;19.20;;;17.40;;
13032;SDS011;6583;42.632;23.298;2022-09-02T02:40:49;19.73;;;17.80;;
13032;SDS011;6583;42.632;23.298;2022-09-02T02:43:20;17.52;;;15.77;;
13032;SDS011;6583;42.632;23.298;2022-09-02T02:45:47;15.07;;;13.68;;
13032;SDS011;6583;42.632;23.298;2022-09-02T02:48:15;15.55;;;14.02;;
13032;SDS011;6583;42.632;23.298;2022-09-02T02:50:42;16.90;;;15.10;;
13032;SDS011;6583;42.632;23.298;2022-09-02T02:53:08;16.98;;;15.38;;
13032;SDS011;6583;42.632;23.298;2022-09-02T02:55:37;16.25;;;14.75;;
13032;SDS011;6583;42.632;23.298;2022-09-02T02:58:04;16.63;;;15.02;;
13032;SDS011;6583;42.632;23.298;2022-09-02T03:00:32;16.23;;;14.60;;
13032;SDS011;6583;42.632;23.298;2022-09-02T03:03:00;17.00;;;15.35;;
13032;SDS011;6583;42.632;23.298;2022-09-02T03:05:29;16.40;;;14.85;;
13032;SDS011;6583;42.632;23.298;2022-09-02T03:07:57;16.48;;;14.77;;
13032;SDS011;6583;42.632;23.298;2022-09-02T03:10:24;16.15;;;14.63;;
13032;SDS011;6583;42.632;23.298;2022-09-02T03:12:51;16.35;;;14.80;;
13032;SDS011;6583;42.632;23.298;2022-09-02T03:15:18;16.42;;;14.93;;
13032;SDS011;6583;42.632;23.298;2022-09-02T03:17:46;16.90;;;15.20;;
13032;SDS011;6583;42.632;23.298;2022-09-02T03:20:14;17.27;;;15.48;;
13032;SDS011;6583;42.632;23.298;2022-09-02T03:22:43;17.63;;;15.82;;
13032;SDS011;6583;42.632;23.298;2022-09-02T03:25:12;17.45;;;15.73;;
13032;SDS011;6583;42.632;23.298;2022-09-02T03:27:41;16.85;;;15.25;;
13032;SDS011;6583;42.632;23.298;2022-09-02T03:30:10;16.92;;;15.23;;
13032;SDS011;6583;42.632;23.298;2022-09-02T03:32:39;16.25;;;14.63;;
13032;SDS011;6583;42.632;23.298;2022-09-02T03:35:08;17.30;;;15.50;;
13032;SDS011;6583;42.632;23.298;2022-09-02T03:37:38;16.35;;;14.75;;
13032;SDS011;6583;42.632;23.298;2022-09-02T03:40:07;16.40;;;14.82;;
13032;SDS011;6583;42.632;23.298;2022-09-02T03:42:36;17.50;;;15.75;;
13032;SDS011;6583;42.632;23.298;2022-09-02T03:45:04;16.80;;;15.00;;
13032;SDS011;6583;42.632;23.298;2022-09-02T03:47:32;16.58;;;14.77;;
13032;SDS011;6583;42.632;23.298;2022-09-02T03:49:59;15.48;;;13.98;;
13032;SDS011;6583;42.632;23.298;2022-09-02T03:52:26;14.80;;;13.50;;
13032;SDS011;6583;42.632;23.298;2022-09-02T03:54:53;14.90;;;13.50;;
13032;SDS011;6583;42.632;23.298;2022-09-02T03:57:21;14.95;;;13.50;;
13032;SDS011;6583;42.632;23.298;2022-09-02T03:59:50;14.63;;;13.20;;
13032;SDS011;6583;42.632;23.298;2022-09-02T04:02:17;13.73;;;12.43;;
13032;SDS011;6583;42.632;23.298;2022-09-02T04:04:44;13.25;;;11.82;;
13032;SDS011;6583;42.632;23.298;2022-09-02T04:07:10;14.85;;;13.35;;
13032;SDS011;6583;42.632;23.298;2022-09-02T04:09:37;14.35;;;12.93;;
13032;SDS011;6583;42.632;23.298;2022-09-02T04:12:04;13.70;;;10.85;;
13032;SDS011;6583;42.632;23.298;2022-09-02T04:14:32;11.73;;;10.63;;
13032;SDS011;6583;42.632;23.298;2022-09-02T04:16:59;12.10;;;11.00;;
13032;SDS011;6583;42.632;23.298;2022-09-02T04:19:26;13.65;;;10.98;;
13032;SDS011;6583;42.632;23.298;2022-09-02T04:21:52;25.15;;;11.75;;
13032;SDS011;6583;42.632;23.298;2022-09-02T04:24:19;12.88;;;11.55;;
13032;SDS011;6583;42.632;23.298;2022-09-02T04:26:46;12.57;;;11.32;;
13032;SDS011;6583;42.632;23.298;2022-09-02T04:29:12;12.65;;;11.18;;
13032;SDS011;6583;42.632;23.298;2022-09-02T04:31:42;12.85;;;11.43;;
13032;SDS011;6583;42.632;23.298;2022-09-02T04:34:08;12.75;;;11.52;;
13032;SDS011;6583;42.632;23.298;2022-09-02T04:36:35;11.60;;;10.60;;
13032;SDS011;6583;42.632;23.298;2022-09-02T04:39:02;12.40;;;11.30;;
13032;SDS011;6583;42.632;23.298;2022-09-02T04:41:29;12.38;;;10.93;;
13032;SDS011;6583;42.632;23.298;2022-09-02T04:43:57;13.88;;;12.13;;
13032;SDS011;6583;42.632;23.298;2022-09-02T04:46:24;14.40;;;10.98;;
13032;SDS011;6583;42.632;23.298;2022-09-02T04:48:53;18.63;;;12.18;;
13032;SDS011;6583;42.632;23.298;2022-09-02T04:51:20;14.65;;;11.90;;
13032;SDS011;6583;42.632;23.298;2022-09-02T04:53:49;12.13;;;10.27;;
13032;SDS011;6583;42.632;23.298;2022-09-02T04:56:19;12.38;;;11.07;;
13032;SDS011;6583;42.632;23.298;2022-09-02T04:58:47;12.35;;;11.15;;
13032;SDS011;6583;42.632;23.298;2022-09-02T05:01:16;12.00;;;10.82;;
13032;SDS011;6583;42.632;23.298;2022-09-02T05:03:46;11.90;;;10.70;;
13032;SDS011;6583;42.632;23.298;2022-09-02T05:06:16;12.30;;;11.10;;
13032;SDS011;6583;42.632;23.298;2022-09-02T05:08:44;13.57;;;11.65;;
13032;SDS011;6583;42.632;23.298;2022-09-02T05:11:13;11.43;;;10.23;;
13032;SDS011;6583;42.632;23.298;2022-09-02T05:13:42;12.35;;;10.48;;
13032;SDS011;6583;42.632;23.298;2022-09-02T05:16:15;12.50;;;10.50;;
13032;SDS011;6583;42.632;23.298;2022-09-02T05:18:42;10.63;;;9.52;;
13032;SDS011;6583;42.632;23.298;2022-09-02T05:21:09;10.18;;;9.18;;
13032;SDS011;6583;42.632;23.298;2022-09-02T05:23:37;10.50;;;9.45;;
13032;SDS011;6583;42.632;23.298;2022-09-02T05:26:04;9.75;;;8.85;;
13032;SDS011;6583;42.632;23.298;2022-09-02T05:28:31;9.52;;;8.68;;
13032;SDS011;6583;42.632;23.298;2022-09-02T05:31:01;10.73;;;9.48;;
13032;SDS011;6583;42.632;23.298;2022-09-02T05:33:29;10.13;;;9.13;;
13032;SDS011;6583;42.632;23.298;2022-09-02T05:35:56;9.57;;;8.63;;
13032;SDS011;6583;42.632;23.298;2022-09-02T05:38:23;9.68;;;8.77;;
13032;SDS011;6583;42.632;23.298;2022-09-02T05:40:51;8.85;;;8.05;;
13032;SDS011;6583;42.632;23.298;2022-09-02T05:43:18;10.00;;;8.20;;
13032;SDS011;6583;42.632;23.298;2022-09-02T05:45:44;9.52;;;8.52;;
13032;SDS011;6583;42.632;23.298;2022-09-02T05:48:12;8.95;;;8.15;;
13032;SDS011;6583;42.632;23.298;2022-09-02T05:50:57;8.55;;;7.85;;
13032;SDS011;6583;42.632;23.298;2022-09-02T05:53:23;8.25;;;7.55;;
13032;SDS011;6583;42.632;23.298;2022-09-02T05:55:52;9.23;;;8.38;;
13032;SDS011;6583;42.632;23.298;2022-09-02T05:58:18;8.45;;;7.75;;
13032;SDS011;6583;42.632;23.298;2022-09-02T06:00:45;9.02;;;8.23;;
13032;SDS011;6583;42.632;23.298;2022-09-02T06:03:12;9.27;;;8.18;;
13032;SDS011;6583;42.632;23.298;2022-09-02T06:05:38;9.35;;;8.45;;
13032;SDS011;6583;42.632;23.298;2022-09-02T06:08:06;8.10;;;7.40;;
13032;SDS011;6583;42.632;23.298;2022-09-02T06:10:33;9.05;;;8.25;;
13032;SDS011;6583;42.632;23.298;2022-09-02T06:13:01;8.85;;;8.05;;
13032;SDS011;6583;42.632;23.298;2022-09-02T06:15:28;13.95;;;8.60;;
13032;SDS011;6583;42.632;23.298;2022-09-02T06:17:55;14.02;;;8.63;;
13032;SDS011;6583;42.632;23.298;2022-09-02T06:20:23;7.95;;;7.25;;
13032;SDS011;6583;42.632;23.298;2022-09-02T06:22:53;7.72;;;7.03;;
13032;SDS011;6583;42.632;23.298;2022-09-02T06:25:19;9.55;;;8.25;;
13032;SDS011;6583;42.632;23.298;2022-09-02T06:27:46;10.63;;;8.13;;
13032;SDS011;6583;42.632;23.298;2022-09-02T06:30:14;8.85;;;7.90;;
13032;SDS011;6583;42.632;23.298;2022-09-02T06:32:41;8.20;;;7.40;;
13032;SDS011;6583;42.632;23.298;2022-09-02T06:35:08;7.90;;;7.20;;
13032;SDS011;6583;42.632;23.298;2022-09-02T06:37:34;8.70;;;7.88;;
13032;SDS011;6583;42.632;23.298;2022-09-02T06:40:01;11.35;;;7.82;;
13032;SDS011;6583;42.632;23.298;2022-09-02T06:42:29;44.92;;;12.45;;
13032;SDS011;6583;42.632;23.298;2022-09-02T06:44:56;21.20;;;9.68;;
13032;SDS011;6583;42.632;23.298;2022-09-02T06:47:24;21.27;;;10.25;;
13032;SDS011;6583;42.632;23.298;2022-09-02T06:49:51;14.32;;;9.45;;
13032;SDS011;6583;42.632;23.298;2022-09-02T06:52:17;10.65;;;8.85;;
13032;SDS011;6583;42.632;23.298;2022-09-02T06:54:44;12.02;;;9.30;;
13032;SDS011;6583;42.632;23.298;2022-09-02T06:57:11;9.55;;;8.60;;
13032;SDS011;6583;42.632;23.298;2022-09-02T06:59:38;10.02;;;8.70;;
13032;SDS011;6583;42.632;23.298;2022-09-02T07:02:05;14.93;;;9.13;;
13032;SDS011;6583;42.632;23.298;2022-09-02T07:04:33;9.93;;;8.88;;
13032;SDS011;6583;42.632;23.298;2022-09-02T07:07:17;10.57;;;9.48;;
13032;SDS011;6583;42.632;23.298;2022-09-02T07:09:44;11.68;;;9.50;;
13032;SDS011;6583;42.632;23.298;2022-09-02T07:12:11;10.85;;;9.77;;
13032;SDS011;6583;42.632;23.298;2022-09-02T07:14:40;10.57;;;9.57;;
13032;SDS011;6583;42.632;23.298;2022-09-02T07:17:08;10.50;;;9.60;;
13032;SDS011;6583;42.632;23.298;2022-09-02T07:19:37;11.38;;;9.70;;
13032;SDS011;6583;42.632;23.298;2022-09-02T07:22:05;11.27;;;9.80;;
13032;SDS011;6583;42.632;23.298;2022-09-02T07:24:32;9.85;;;8.85;;
13032;SDS011;6583;42.632;23.298;2022-09-02T07:26:59;10.10;;;9.10;;
13032;SDS011;6583;42.632;23.298;2022-09-02T07:29:25;9.88;;;8.98;;
13032;SDS011;6583;42.632;23.298;2022-09-02T07:31:52;10.32;;;9.25;;
13032;SDS011;6583;42.632;23.298;2022-09-02T07:34:19;9.30;;;8.40;;
13032;SDS011;6583;42.632;23.298;2022-09-02T07:36:47;11.40;;;9.00;;
13032;SDS011;6583;42.632;23.298;2022-09-02T07:39:14;9.30;;;8.40;;
13032;SDS011;6583;42.632;23.298;2022-09-02T07:41:43;9.40;;;8.60;;
13032;SDS011;6583;42.632;23.298;2022-09-02T07:44:12;7.97;;;7.13;;
13032;SDS011;6583;42.632;23.298;2022-09-02T07:46:39;8.07;;;7.47;;
13032;SDS011;6583;42.632;23.298;2022-09-02T07:49:07;8.57;;;7.88;;
13032;SDS011;6583;42.632;23.298;2022-09-02T07:51:37;8.50;;;7.80;;
13032;SDS011;6583;42.632;23.298;2022-09-02T07:54:08;16.20;;;8.82;;
13032;SDS011;6583;42.632;23.298;2022-09-02T07:56:37;8.02;;;7.22;;
13032;SDS011;6583;42.632;23.298;2022-09-02T07:59:04;9.05;;;7.25;;
13032;SDS011;6583;42.632;23.298;2022-09-02T08:01:31;7.38;;;6.78;;
13032;SDS011;6583;42.632;23.298;2022-09-02T08:03:58;7.75;;;7.05;;
13032;SDS011;6583;42.632;23.298;2022-09-02T08:06:25;7.47;;;6.78;;
13032;SDS011;6583;42.632;23.298;2022-09-02T08:08:53;7.25;;;6.55;;
13032;SDS011;6583;42.632;23.298;2022-09-02T08:11:21;7.15;;;6.43;;
13032;SDS011;6583;42.632;23.298;2022-09-02T08:13:48;7.30;;;6.55;;
13032;SDS011;6583;42.632;23.298;2022-09-02T08:16:15;7.95;;;6.90;;
13032;SDS011;6583;42.632;23.298;2022-09-02T08:18:42;7.65;;;6.82;;
13032;SDS011;6583;42.632;23.298;2022-09-02T08:21:08;8.15;;;7.28;;
13032;SDS011;6583;42.632;23.298;2022-09-02T08:23:35;8.48;;;6.80;;
13032;SDS011;6583;42.632;23.298;2022-09-02T08:26:03;8.07;;;7.28;;
13032;SDS011;6583;42.632;23.298;2022-09-02T08:28:31;7.82;;;7.18;;
13032;SDS011;6583;42.632;23.298;2022-09-02T08:31:02;8.40;;;7.70;;
13032;SDS011;6583;42.632;23.298;2022-09-02T08:33:30;8.27;;;7.55;;
13032;SDS011;6583;42.632;23.298;2022-09-02T08:36:00;8.55;;;7.75;;
13032;SDS011;6583;42.632;23.298;2022-09-02T08:38:27;9.00;;;8.20;;
13032;SDS011;6583;42.632;23.298;2022-09-02T08:40:54;8.80;;;8.00;;
13032;SDS011;6583;42.632;23.298;2022-09-02T08:43:27;8.75;;;7.95;;
13032;SDS011;6583;42.632;23.298;2022-09-02T08:46:03;8.82;;;8.13;;
13032;SDS011;6583;42.632;23.298;2022-09-02T08:48:33;8.05;;;7.43;;
13032;SDS011;6583;42.632;23.298;2022-09-02T08:51:05;8.25;;;7.55;;
13032;SDS011;6583;42.632;23.298;2022-09-02T08:53:35;10.85;;;8.10;;
13032;SDS011;6583;42.632;23.298;2022-09-02T08:56:10;11.65;;;8.35;;
13032;SDS011;6583;42.632;23.298;2022-09-02T08:58:42;9.00;;;8.20;;
13032;SDS011;6583;42.632;23.298;2022-09-02T09:01:16;10.13;;;9.05;;
13032;SDS011;6583;42.632;23.298;2022-09-02T09:06:45;10.40;;;8.95;;
13032;SDS011;6583;42.632;23.298;2022-09-02T09:09:25;10.05;;;8.98;;
13032;SDS011;6583;42.632;23.298;2022-09-02T09:12:01;9.45;;;8.48;;
13032;SDS011;6583;42.632;23.298;2022-09-02T09:14:37;10.90;;;9.68;;
13032;SDS011;6583;42.632;23.298;2022-09-02T09:17:11;10.05;;;9.05;;
13032;SDS011;6583;42.632;23.298;2022-09-02T09:19:45;10.43;;;9.23;;
13032;SDS011;6583;42.632;23.298;2022-09-02T09:22:17;10.27;;;9.20;;
13032;SDS011;6583;42.632;23.298;2022-09-02T09:24:45;9.85;;;8.85;;
13032;SDS011;6583;42.632;23.298;2022-09-02T09:27:14;10.63;;;9.13;;
13032;SDS011;6583;42.632;23.298;2022-09-02T09:29:42;12.00;;;9.95;;
13032;SDS011;6583;42.632;23.298;2022-09-02T09:32:14;11.23;;;9.55;;
13032;SDS011;6583;42.632;23.298;2022-09-02T09:34:55;11.15;;;9.30;;
13032;SDS011;6583;42.632;23.298;2022-09-02T09:37:28;10.23;;;9.23;;
13032;SDS011;6583;42.632;23.298;2022-09-02T09:39:56;13.85;;;10.20;;
13032;SDS011;6583;42.632;23.298;2022-09-02T09:42:30;9.93;;;9.02;;
13032;SDS011;6583;42.632;23.298;2022-09-02T09:44:58;10.85;;;9.77;;
13032;SDS011;6583;42.632;23.298;2022-09-02T09:47:27;11.73;;;10.52;;
13032;SDS011;6583;42.632;23.298;2022-09-02T09:50:08;11.60;;;10.40;;
13032;SDS011;6583;42.632;23.298;2022-09-02T09:52:37;11.68;;;10.48;;
13032;SDS011;6583;42.632;23.298;2022-09-02T09:55:09;10.60;;;9.70;;
13032;SDS011;6583;42.632;23.298;2022-09-02T09:57:38;11.57;;;10.20;;
13032;SDS011;6583;42.632;23.298;2022-09-02T10:00:11;10.63;;;9.63;;
13032;SDS011;6583;42.632;23.298;2022-09-02T10:02:49;11.55;;;9.65;;
13032;SDS011;6583;42.632;23.298;2022-09-02T10:05:18;10.82;;;9.82;;
13032;SDS011;6583;42.632;23.298;2022-09-02T10:07:55;11.00;;;10.10;;
13032;SDS011;6583;42.632;23.298;2022-09-02T10:10:24;11.48;;;10.38;;
13032;SDS011;6583;42.632;23.298;2022-09-02T10:12:53;11.75;;;10.55;;
13032;SDS011;6583;42.632;23.298;2022-09-02T10:15:25;13.35;;;11.95;;
13032;SDS011;6583;42.632;23.298;2022-09-02T10:18:03;13.10;;;11.43;;
13032;SDS011;6583;42.632;23.298;2022-09-02T10:20:41;12.23;;;11.02;;
13032;SDS011;6583;42.632;23.298;2022-09-02T10:26:12;13.50;;;12.13;;
13032;SDS011;6583;42.632;23.298;2022-09-02T10:29:13;15.00;;;12.07;;
13032;SDS011;6583;42.632;23.298;2022-09-02T10:32:04;15.48;;;13.82;;
13032;SDS011;6583;42.632;23.298;2022-09-02T10:34:47;13.10;;;11.80;;
13032;SDS011;6583;42.632;23.298;2022-09-02T10:37:23;12.77;;;11.57;;
13032;SDS011;6583;42.632;23.298;2022-09-02T10:39:58;13.27;;;11.93;;
13032;SDS011;6583;42.632;23.298;2022-09-02T10:42:34;14.20;;;12.85;;
13032;SDS011;6583;42.632;23.298;2022-09-02T10:45:11;14.52;;;13.13;;
13032;SDS011;6583;42.632;23.298;2022-09-02T10:47:41;17.13;;;13.57;;
13032;SDS011;6583;42.632;23.298;2022-09-02T10:50:19;14.60;;;13.10;;
13032;SDS011;6583;42.632;23.298;2022-09-02T10:53:06;17.95;;;12.65;;
13032;SDS011;6583;42.632;23.298;2022-09-02T10:55:48;15.50;;;13.90;;
13032;SDS011;6583;42.632;23.298;2022-09-02T10:58:23;17.52;;;14.55;;
13032;SDS011;6583;42.632;23.298;2022-09-02T11:01:00;15.27;;;13.77;;
13032;SDS011;6583;42.632;23.298;2022-09-02T11:03:28;16.02;;;14.32;;
13032;SDS011;6583;42.632;23.298;2022-09-02T11:06:01;16.52;;;14.82;;
13032;SDS011;6583;42.632;23.298;2022-09-02T11:08:34;15.75;;;14.15;;
13032;SDS011;6583;42.632;23.298;2022-09-02T11:11:05;16.27;;;14.68;;
13032;SDS011;6583;42.632;23.298;2022-09-02T11:13:37;16.75;;;15.05;;
13032;SDS011;6583;42.632;23.298;2022-09-02T11:16:13;16.67;;;15.05;;
13032;SDS011;6583;42.632;23.298;2022-09-02T11:18:47;16.77;;;14.90;;
13032;SDS011;6583;42.632;23.298;2022-09-02T11:21:28;16.83;;;15.15;;
13032;SDS011;6583;42.632;23.298;2022-09-02T11:24:02;17.60;;;15.32;;
13032;SDS011;6583;42.632;23.298;2022-09-02T11:26:35;17.73;;;15.93;;
13032;SDS011;6583;42.632;23.298;2022-09-02T11:29:06;18.08;;;16.20;;
13032;SDS011;6583;42.632;23.298;2022-09-02T11:31:41;17.10;;;15.32;;
13032;SDS011;6583;42.632;23.298;2022-09-02T11:34:17;17.98;;;15.75;;
13032;SDS011;6583;42.632;23.298;2022-09-02T11:37:02;18.45;;;15.63;;
13032;SDS011;6583;42.632;23.298;2022-09-02T11:39:31;18.13;;;16.30;;
13032;SDS011;6583;42.632;23.298;2022-09-02T11:42:08;18.75;;;17.05;;
13032;SDS011;6583;42.632;23.298;2022-09-02T11:47:50;18.13;;;16.33;;
13032;SDS011;6583;42.632;23.298;2022-09-02T11:50:54;19.08;;;17.08;;
13032;SDS011;6583;42.632;23.298;2022-09-02T11:53:35;18.27;;;16.20;;
13032;SDS011;6583;42.632;23.298;2022-09-02T11:56:07;17.83;;;16.13;;
13032;SDS011;6583;42.632;23.298;2022-09-02T11:58:39;18.67;;;16.98;;
13032;SDS011;6583;42.632;23.298;2022-09-02T12:01:18;18.92;;;16.95;;
13032;SDS011;6583;42.632;23.298;2022-09-02T12:03:52;18.25;;;16.45;;
13032;SDS011;6583;42.632;23.298;2022-09-02T12:06:23;18.60;;;16.80;;
13032;SDS011;6583;42.632;23.298;2022-09-02T12:11:46;19.13;;;17.13;;
13032;SDS011;6583;42.632;23.298;2022-09-02T12:29:33;18.55;;;16.75;;
13032;SDS011;6583;42.632;23.298;2022-09-02T12:32:01;19.27;;;17.40;;
13032;SDS011;6583;42.632;23.298;2022-09-02T12:40:22;19.73;;;17.77;;
13032;SDS011;6583;42.632;23.298;2022-09-02T12:42:55;19.67;;;17.83;;
13032;SDS011;6583;42.632;23.298;2022-09-02T12:45:27;19.92;;;17.83;;
13032;SDS011;6583;42.632;23.298;2022-09-02T12:47:57;18.65;;;16.75;;
13032;SDS011;6583;42.632;23.298;2022-09-02T12:50:27;19.80;;;17.90;;
13032;SDS011;6583;42.632;23.298;2022-09-02T12:53:10;20.77;;;18.70;;
13032;SDS011;6583;42.632;23.298;2022-09-02T12:55:52;20.75;;;18.67;;
13032;SDS011;6583;42.632;23.298;2022-09-02T12:58:23;19.77;;;17.88;;
13032;SDS011;6583;42.632;23.298;2022-09-02T13:00:55;20.48;;;18.27;;
13032;SDS011;6583;42.632;23.298;2022-09-02T13:03:38;20.15;;;18.00;;
13032;SDS011;6583;42.632;23.298;2022-09-02T13:06:19;18.95;;;17.15;;
13032;SDS011;6583;42.632;23.298;2022-09-02T13:09:14;19.20;;;17.35;;
13032;SDS011;6583;42.632;23.298;2022-09-02T13:12:19;20.27;;;18.33;;
13032;SDS011;6583;42.632;23.298;2022-09-02T13:18:15;19.27;;;17.25;;
13032;SDS011;6583;42.632;23.298;2022-09-02T13:24:10;18.67;;;16.75;;
13032;SDS011;6583;42.632;23.298;2022-09-02T13:27:01;21.08;;;18.77;;
13032;SDS011;6583;42.632;23.298;2022-09-02T13:30:01;21.67;;;19.35;;
13032;SDS011;6583;42.632;23.298;2022-09-02T13:32:33;24.88;;;21.05;;
13032;SDS011;6583;42.632;23.298;2022-09-02T13:35:03;24.30;;;21.65;;
13032;SDS011;6583;42.632;23.298;2022-09-02T13:37:32;23.13;;;20.75;;
13032;SDS011;6583;42.632;23.298;2022-09-02T13:40:02;21.83;;;19.65;;
13032;SDS011;6583;42.632;23.298;2022-09-02T13:42:31;22.55;;;20.27;;
13032;SDS011;6583;42.632;23.298;2022-09-02T13:45:08;24.77;;;22.15;;
13032;SDS011;6583;42.632;23.298;2022-09-02T13:47:40;24.25;;;21.88;;
13032;SDS011;6583;42.632;23.298;2022-09-02T13:50:08;24.45;;;21.95;;
13032;SDS011;6583;42.632;23.298;2022-09-02T13:52:36;23.40;;;20.90;;
13032;SDS011;6583;42.632;23.298;2022-09-02T13:55:04;25.88;;;23.15;;
13032;SDS011;6583;42.632;23.298;2022-09-02T13:57:32;25.65;;;23.05;;
13032;SDS011;6583;42.632;23.298;2022-09-02T14:00:01;23.55;;;21.25;;
13032;SDS011;6583;42.632;23.298;2022-09-02T14:02:31;24.98;;;22.45;;
13032;SDS011;6583;42.632;23.298;2022-09-02T14:05:01;23.65;;;21.25;;
13032;SDS011;6583;42.632;23.298;2022-09-02T14:07:31;24.23;;;21.83;;
13032;SDS011;6583;42.632;23.298;2022-09-02T14:10:04;24.23;;;21.80;;
13032;SDS011;6583;42.632;23.298;2022-09-02T14:12:34;24.88;;;22.30;;
13032;SDS011;6583;42.632;23.298;2022-09-02T14:15:03;24.05;;;21.65;;
13032;SDS011;6583;42.632;23.298;2022-09-02T14:17:32;24.20;;;21.80;;
13032;SDS011;6583;42.632;23.298;2022-09-02T14:20:08;24.48;;;21.92;;
13032;SDS011;6583;42.632;23.298;2022-09-02T14:22:42;24.63;;;21.23;;
13032;SDS011;6583;42.632;23.298;2022-09-02T14:25:10;24.25;;;21.75;;
13032;SDS011;6583;42.632;23.298;2022-09-02T14:27:39;26.20;;;23.40;;
13032;SDS011;6583;42.632;23.298;2022-09-02T14:30:13;25.30;;;22.55;;
13032;SDS011;6583;42.632;23.298;2022-09-02T14:35:53;27.40;;;24.58;;
13032;SDS011;6583;42.632;23.298;2022-09-02T14:38:21;26.65;;;23.77;;
13032;SDS011;6583;42.632;23.298;2022-09-02T14:40:49;28.85;;;24.95;;
13032;SDS011;6583;42.632;23.298;2022-09-02T14:43:24;27.38;;;24.40;;
13032;SDS011;6583;42.632;23.298;2022-09-02T14:45:53;27.63;;;24.60;;
13032;SDS011;6583;42.632;23.298;2022-09-02T14:48:32;25.90;;;23.25;;
13032;SDS011;6583;42.632;23.298;2022-09-02T14:51:05;26.00;;;23.25;;
13032;SDS011;6583;42.632;23.298;2022-09-02T14:53:33;25.60;;;23.00;;
13032;SDS011;6583;42.632;23.298;2022-09-02T14:56:02;27.13;;;24.27;;
13032;SDS011;6583;42.632;23.298;2022-09-02T14:58:30;25.63;;;22.98;;
13032;SDS011;6583;42.632;23.298;2022-09-02T15:00:57;26.13;;;23.33;;
13032;SDS011;6583;42.632;23.298;2022-09-02T15:03:25;25.40;;;22.90;;
13032;SDS011;6583;42.632;23.298;2022-09-02T15:05:53;26.15;;;22.70;;
13032;SDS011;6583;42.632;23.298;2022-09-02T15:08:22;24.75;;;22.20;;
13032;SDS011;6583;42.632;23.298;2022-09-02T15:10:49;24.90;;;22.25;;
13032;SDS011;6583;42.632;23.298;2022-09-02T15:13:21;26.25;;;23.45;;
13032;SDS011;6583;42.632;23.298;2022-09-02T15:15:52;26.30;;;23.52;;
13032;SDS011;6583;42.632;23.298;2022-09-02T15:18:20;25.15;;;22.45;;
13032;SDS011;6583;42.632;23.298;2022-09-02T15:20:47;24.52;;;22.08;;
13032;SDS011;6583;42.632;23.298;2022-09-02T15:23:13;24.98;;;22.50;;
13032;SDS011;6583;42.632;23.298;2022-09-02T15:25:42;25.25;;;22.73;;
13032;SDS011;6583;42.632;23.298;2022-09-02T15:28:08;26.13;;;23.42;;